Time;durP1;ratioP1;P1;durP2;ratioP2;P2;SDS_P1;SDS_P2;PMS_P1;PMS_P2;Temp;Humidity;BMP_temperature;BMP_pressure;BME280_temperature;BME280_humidity;BME280_pressure;Samples;Min_cycle;Max_cycle;Signal;HPM_P1;HPM_P2
2022/11/19 00:01:53;;;;;;;2.50;2.30;;;;;;;;;;5072242;28;20244;-26
2022/11/19 00:04:21;;;;;;;2.50;2.30;;;;;;;;;;5075712;28;20201;-27
2022/11/19 00:06:49;;;;;;;2.37;2.17;;;;;;;;;;5091885;28;20215;-23
2022/11/19 00:09:17;;;;;;;2.40;2.20;;;;;;;;;;5054675;28;20197;-27
2022/11/19 00:14:28;;;;;;;4.50;3.53;;;;;;;;;;5056949;28;20224;-27
2022/11/19 00:16:56;;;;;;;4.10;3.00;;;;;;;;;;5071760;28;20233;-26
2022/11/19 00:19:24;;;;;;;5.07;2.43;;;;;;;;;;5060223;28;20237;-24
2022/11/19 00:21:51;;;;;;;2.53;2.33;;;;;;;;;;5082479;28;20220;-25
2022/11/19 00:24:18;;;;;;;3.00;2.20;;;;;;;;;;5059763;28;20297;-24
2022/11/19 00:26:45;;;;;;;2.67;2.30;;;;;;;;;;5070093;28;20197;-24
2022/11/19 00:29:13;;;;;;;3.10;2.43;;;;;;;;;;5072926;28;20232;-27
2022/11/19 00:31:40;;;;;;;2.97;2.20;;;;;;;;;;5071200;28;20358;-25
2022/11/19 00:34:07;;;;;;;4.90;2.40;;;;;;;;;;5076037;28;20204;-28
2022/11/19 00:36:36;;;;;;;3.13;2.13;;;;;;;;;;5071186;28;20213;-27
2022/11/19 00:39:03;;;;;;;3.13;2.13;;;;;;;;;;5067553;28;20656;-24
2022/11/19 00:41:30;;;;;;;4.03;2.53;;;;;;;;;;5075789;28;20256;-27
2022/11/19 00:43:57;;;;;;;2.70;2.33;;;;;;;;;;5070293;28;20206;-26
2022/11/19 00:46:26;;;;;;;4.50;2.23;;;;;;;;;;5071392;28;20224;-24
2022/11/19 00:48:54;;;;;;;3.53;2.10;;;;;;;;;;5075459;28;20267;-27
2022/11/19 00:51:22;;;;;;;2.63;1.80;;;;;;;;;;5084057;28;20227;-26
2022/11/19 00:53:52;;;;;;;2.33;1.70;;;;;;;;;;5068884;28;20233;-25
2022/11/19 00:56:20;;;;;;;2.90;2.07;;;;;;;;;;5074502;28;20230;-26
2022/11/19 00:58:48;;;;;;;5.60;2.27;;;;;;;;;;5070115;28;20231;-26
2022/11/19 01:01:16;;;;;;;1.87;1.77;;;;;;;;;;5070361;28;20217;-26
2022/11/19 01:03:44;;;;;;;2.67;2.13;;;;;;;;;;5075449;28;20296;-26
2022/11/19 01:06:12;;;;;;;4.03;2.63;;;;;;;;;;5075789;28;20201;-25
2022/11/19 01:08:39;;;;;;;3.03;2.43;;;;;;;;;;5062373;28;20202;-25
2022/11/19 01:11:08;;;;;;;6.13;3.47;;;;;;;;;;5073483;28;20237;-24
2022/11/19 01:13:36;;;;;;;2.37;2.13;;;;;;;;;;5072741;28;20206;-26
2022/11/19 01:16:04;;;;;;;2.53;2.10;;;;;;;;;;5067653;28;20205;-27
2022/11/19 01:18:31;;;;;;;2.30;2.10;;;;;;;;;;5075094;28;20201;-27
2022/11/19 01:20:59;;;;;;;3.83;2.23;;;;;;;;;;5072825;28;20228;-24
2022/11/19 01:23:27;;;;;;;2.33;2.13;;;;;;;;;;5065646;28;20206;-25
2022/11/19 01:25:54;;;;;;;2.07;1.87;;;;;;;;;;5071671;28;20215;-27
2022/11/19 01:28:23;;;;;;;2.50;2.00;;;;;;;;;;5073021;28;20272;-26
2022/11/19 01:30:50;;;;;;;2.13;1.97;;;;;;;;;;5068535;28;20221;-25
2022/11/19 01:33:18;;;;;;;1.80;1.70;;;;;;;;;;5075041;28;20197;-24
2022/11/19 01:35:45;;;;;;;2.27;1.87;;;;;;;;;;5074328;28;20284;-26
2022/11/19 01:38:12;;;;;;;3.03;1.70;;;;;;;;;;5068650;28;20235;-27
2022/11/19 01:40:43;;;;;;;1.80;1.70;;;;;;;;;;5063794;28;20228;-28
2022/11/19 01:43:11;;;;;;;1.50;1.40;;;;;;;;;;5075115;28;20208;-25
2022/11/19 01:45:41;;;;;;;2.70;1.70;;;;;;;;;;5068683;28;20212;-24
2022/11/19 01:48:10;;;;;;;4.93;1.80;;;;;;;;;;5074447;28;20197;-27
2022/11/19 01:50:39;;;;;;;1.80;1.70;;;;;;;;;;5074501;28;20246;-24
2022/11/19 01:53:08;;;;;;;1.77;1.50;;;;;;;;;;5068570;28;20212;-27
2022/11/19 01:55:35;;;;;;;2.63;1.90;;;;;;;;;;5068368;28;20227;-25
2022/11/19 01:58:04;;;;;;;2.13;1.60;;;;;;;;;;5074487;28;20221;-25
2022/11/19 02:00:31;;;;;;;1.63;1.53;;;;;;;;;;5064777;28;20224;-26
2022/11/19 02:02:59;;;;;;;1.50;1.40;;;;;;;;;;5151170;22;20225;-26
2022/11/19 02:05:27;;;;;;;1.60;1.50;;;;;;;;;;5056081;28;20212;-31
2022/11/19 02:07:56;;;;;;;2.77;1.60;;;;;;;;;;5071530;28;20201;-30
2022/11/19 02:10:25;;;;;;;2.63;1.97;;;;;;;;;;5069412;28;20237;-28
2022/11/19 02:12:57;;;;;;;2.10;1.53;;;;;;;;;;5062765;28;20296;-26
2022/11/19 02:15:30;;;;;;;2.43;1.70;;;;;;;;;;5067505;28;20205;-27
2022/11/19 02:18:13;;;;;;;2.70;1.83;;;;;;;;;;5064525;28;20225;-27
2022/11/19 02:20:47;;;;;;;2.13;1.87;;;;;;;;;;5062617;28;20266;-26
2022/11/19 02:23:33;;;;;;;3.43;1.93;;;;;;;;;;5060871;28;20603;-30
2022/11/19 02:26:06;;;;;;;2.43;1.87;;;;;;;;;;5065498;28;20208;-28
2022/11/19 02:28:35;;;;;;;4.70;1.80;;;;;;;;;;5062676;28;20198;-29
2022/11/19 02:31:07;;;;;;;2.20;2.00;;;;;;;;;;5060167;28;20225;-29
2022/11/19 02:33:37;;;;;;;2.30;1.97;;;;;;;;;;5066116;28;20216;-28
2022/11/19 02:36:09;;;;;;;2.53;2.07;;;;;;;;;;5060019;28;20194;-28
2022/11/19 02:38:40;;;;;;;1.83;1.70;;;;;;;;;;5063961;28;20222;-30
2022/11/19 02:41:32;;;;;;;1.60;1.50;;;;;;;;;;5067387;28;20255;-27
2022/11/19 02:44:57;;;;;;;1.70;1.60;;;;;;;;;;5064190;28;20212;-29
2022/11/19 02:46:50;;;;;;;2.40;1.37;;;;;;;;;;5071235;28;20205;-28
2022/11/19 02:49:18;;;;;;;1.97;1.77;;;;;;;;;;5072643;28;20206;-28
2022/11/19 02:51:45;;;;;;;2.53;1.70;;;;;;;;;;5072950;28;20583;-30
2022/11/19 02:54:12;;;;;;;2.77;1.70;;;;;;;;;;5057430;28;20205;-28
2022/11/19 02:56:48;;;;;;;4.73;1.83;;;;;;;;;;5066425;28;20225;-25
2022/11/19 03:04:47;;;;;;;2.50;1.50;;;;;;;;;;5070859;28;20208;-30
2022/11/19 03:07:16;;;;;;;1.87;1.77;;;;;;;;;;5067585;28;20205;-28
2022/11/19 03:09:45;;;;;;;1.67;1.47;;;;;;;;;;5058127;28;20209;-26
2022/11/19 03:12:18;;;;;;;1.83;1.50;;;;;;;;;;5068610;28;20233;-29
2022/11/19 03:17:40;;;;;;;1.30;1.20;;;;;;;;;;5068464;28;20242;-30
2022/11/19 03:20:10;;;;;;;2.13;1.70;;;;;;;;;;5070775;28;20231;-25
2022/11/19 03:22:42;;;;;;;1.57;1.47;;;;;;;;;;5067425;28;20213;-32
2022/11/19 03:25:10;;;;;;;2.57;1.43;;;;;;;;;;5068222;28;20205;-27
2022/11/19 03:27:39;;;;;;;2.90;1.43;;;;;;;;;;5069709;28;20199;-27
2022/11/19 03:30:07;;;;;;;2.27;1.40;;;;;;;;;;5060919;28;20216;-28
2022/11/19 03:32:40;;;;;;;1.57;1.47;;;;;;;;;;5069979;28;20198;-29
2022/11/19 03:35:09;;;;;;;1.40;1.30;;;;;;;;;;5070286;28;20237;-30
2022/11/19 03:37:38;;;;;;;1.60;1.50;;;;;;;;;;5057904;28;20221;-31
2022/11/19 03:40:06;;;;;;;1.50;1.40;;;;;;;;;;5067431;28;20197;-27
2022/11/19 03:42:34;;;;;;;2.80;1.50;;;;;;;;;;5070610;28;20219;-32
2022/11/19 03:45:03;;;;;;;3.23;1.40;;;;;;;;;;5058228;28;20214;-27
2022/11/19 03:47:33;;;;;;;1.67;1.30;;;;;;;;;;5066142;28;20288;-29
2022/11/19 03:50:04;;;;;;;1.23;1.13;;;;;;;;;;5070536;28;20193;-27
2022/11/19 03:52:32;;;;;;;2.27;1.17;;;;;;;;;;5063372;28;20201;-31
2022/11/19 03:54:59;;;;;;;2.03;1.20;;;;;;;;;;5066314;28;20236;-25
2022/11/19 03:57:27;;;;;;;1.33;1.20;;;;;;;;;;5070077;28;20213;-29
2022/11/19 03:59:54;;;;;;;7.63;1.73;;;;;;;;;;5060618;28;20243;-29
2022/11/19 04:02:21;;;;;;;3.17;1.50;;;;;;;;;;5065377;28;20223;-28
2022/11/19 04:04:49;;;;;;;2.50;1.37;;;;;;;;;;5070375;28;20219;-28
2022/11/19 04:07:18;;;;;;;1.67;1.40;;;;;;;;;;5070535;28;20288;-33
2022/11/19 04:09:46;;;;;;;1.47;1.20;;;;;;;;;;5063234;28;20216;-29
2022/11/19 04:12:16;;;;;;;1.40;1.30;;;;;;;;;;5061937;28;20200;-30
2022/11/19 04:14:43;;;;;;;2.43;1.10;;;;;;;;;;5062899;28;20213;-28
2022/11/19 04:17:10;;;;;;;1.80;1.27;;;;;;;;;;5068756;28;20313;-31
2022/11/19 04:19:37;;;;;;;2.57;1.40;;;;;;;;;;5070493;28;20287;-27
2022/11/19 04:22:05;;;;;;;3.63;1.10;;;;;;;;;;5066153;28;20229;-32
2022/11/19 04:24:33;;;;;;;1.47;1.37;;;;;;;;;;5057487;28;20206;-28
2022/11/19 04:27:00;;;;;;;1.93;1.27;;;;;;;;;;5067504;28;20201;-29
2022/11/19 04:29:27;;;;;;;1.73;1.30;;;;;;;;;;5064375;28;20201;-31
2022/11/19 04:31:55;;;;;;;3.13;1.20;;;;;;;;;;5062172;28;20233;-29
2022/11/19 04:34:22;;;;;;;4.00;1.40;;;;;;;;;;5070136;28;20197;-29
2022/11/19 04:36:49;;;;;;;1.33;1.13;;;;;;;;;;5069958;28;20208;-27
2022/11/19 04:39:16;;;;;;;1.33;1.23;;;;;;;;;;5063308;28;20201;-28
2022/11/19 04:41:45;;;;;;;0.90;0.90;;;;;;;;;;5063829;28;20326;-27
2022/11/19 04:44:12;;;;;;;1.53;0.80;;;;;;;;;;5063681;28;20205;-29
2022/11/19 04:46:39;;;;;;;1.30;1.20;;;;;;;;;;5060675;28;20193;-29
2022/11/19 04:49:06;;;;;;;1.17;1.07;;;;;;;;;;5072218;28;20199;-28
2022/11/19 04:51:33;;;;;;;1.30;1.20;;;;;;;;;;5068849;28;20230;-26
2022/11/19 04:54:00;;;;;;;1.20;1.10;;;;;;;;;;5070667;28;20205;-31
2022/11/19 04:56:27;;;;;;;3.17;1.20;;;;;;;;;;5068746;28;20208;-26
2022/11/19 04:58:56;;;;;;;1.33;1.20;;;;;;;;;;5065858;28;20230;-29
2022/11/19 05:01:23;;;;;;;1.40;1.30;;;;;;;;;;5064634;28;20221;-28
2022/11/19 05:03:50;;;;;;;2.47;1.17;;;;;;;;;;5069792;28;20216;-31
2022/11/19 05:06:17;;;;;;;3.20;1.13;;;;;;;;;;5067750;28;20227;-26
2022/11/19 05:08:44;;;;;;;1.10;1.00;;;;;;;;;;5062247;28;20208;-27
2022/11/19 05:11:12;;;;;;;2.10;1.00;;;;;;;;;;5069338;28;20348;-32
2022/11/19 05:13:39;;;;;;;1.87;0.83;;;;;;;;;;5069475;28;20201;-29
2022/11/19 05:16:08;;;;;;;1.20;1.10;;;;;;;;;;5066366;28;20317;-30
2022/11/19 05:18:35;;;;;;;1.30;1.10;;;;;;;;;;5073138;28;20213;-26
2022/11/19 05:21:02;;;;;;;1.40;1.30;;;;;;;;;;5073854;28;20225;-28
2022/11/19 05:23:29;;;;;;;1.97;1.17;;;;;;;;;;5068114;28;20208;-33
2022/11/19 05:25:56;;;;;;;1.00;1.00;;;;;;;;;;5070886;28;20211;-30
2022/11/19 05:28:24;;;;;;;1.53;1.20;;;;;;;;;;5072245;28;20234;-28
2022/11/19 05:30:54;;;;;;;1.10;1.10;;;;;;;;;;5072389;28;20227;-30
2022/11/19 05:33:22;;;;;;;1.63;1.20;;;;;;;;;;5075116;28;20197;-29
2022/11/19 05:35:49;;;;;;;1.50;1.40;;;;;;;;;;5074927;28;20211;-30
2022/11/19 05:38:16;;;;;;;2.30;1.60;;;;;;;;;;5064988;28;20280;-30
2022/11/19 05:40:44;;;;;;;1.57;1.40;;;;;;;;;;5068176;28;20237;-29
2022/11/19 05:43:12;;;;;;;2.47;1.40;;;;;;;;;;5071916;28;20197;-28
2022/11/19 05:45:39;;;;;;;1.27;1.17;;;;;;;;;;5057841;28;20197;-28
2022/11/19 05:48:07;;;;;;;1.47;1.20;;;;;;;;;;5070458;28;20289;-26
2022/11/19 05:50:35;;;;;;;2.60;1.20;;;;;;;;;;5071548;28;20221;-31
2022/11/19 05:53:04;;;;;;;1.37;1.27;;;;;;;;;;5061797;28;20205;-30
2022/11/19 05:55:31;;;;;;;1.83;1.20;;;;;;;;;;5067112;28;20288;-29
2022/11/19 05:58:00;;;;;;;2.20;1.57;;;;;;;;;;5060944;28;20229;-33
2022/11/19 06:00:27;;;;;;;1.57;1.47;;;;;;;;;;5067777;28;20221;-31
2022/11/19 06:02:55;;;;;;;1.93;1.73;;;;;;;;;;5064065;28;20253;-25
2022/11/19 06:05:22;;;;;;;1.30;1.03;;;;;;;;;;5065742;28;20198;-26
2022/11/19 06:07:50;;;;;;;1.80;1.30;;;;;;;;;;5060564;28;20212;-29
2022/11/19 06:10:17;;;;;;;1.50;1.20;;;;;;;;;;5066481;28;20248;-30
2022/11/19 06:12:45;;;;;;;2.50;1.27;;;;;;;;;;5071637;28;20220;-27
2022/11/19 06:15:12;;;;;;;2.03;1.20;;;;;;;;;;5063750;28;20205;-27
2022/11/19 06:17:39;;;;;;;1.20;1.10;;;;;;;;;;5071416;28;20236;-28
2022/11/19 06:20:07;;;;;;;1.00;0.90;;;;;;;;;;5070401;28;20229;-28
2022/11/19 06:22:35;;;;;;;1.40;1.30;;;;;;;;;;5061197;28;20260;-28
2022/11/19 06:25:03;;;;;;;1.23;1.10;;;;;;;;;;5058031;28;20205;-30
2022/11/19 06:27:30;;;;;;;1.03;0.90;;;;;;;;;;5065128;28;20440;-29
2022/11/19 06:29:58;;;;;;;2.77;1.30;;;;;;;;;;5065769;28;20291;-28
2022/11/19 06:32:25;;;;;;;1.07;0.97;;;;;;;;;;5063077;28;20216;-29
2022/11/19 06:34:52;;;;;;;1.20;1.20;;;;;;;;;;5067508;28;20194;-27
2022/11/19 06:37:19;;;;;;;1.20;1.10;;;;;;;;;;5071538;28;20300;-27
2022/11/19 06:39:47;;;;;;;1.23;0.90;;;;;;;;;;5065958;28;20220;-26
2022/11/19 06:45:00;;;;;;;2.07;1.10;;;;;;;;;;5059457;28;20271;-30
2022/11/19 06:47:30;;;;;;;2.60;1.30;;;;;;;;;;5071029;28;20217;-32
2022/11/19 06:49:57;;;;;;;0.97;0.90;;;;;;;;;;5070807;28;20228;-33
2022/11/19 06:52:24;;;;;;;1.47;1.37;;;;;;;;;;5060395;28;20288;-27
2022/11/19 06:54:51;;;;;;;1.50;1.40;;;;;;;;;;5066951;28;20205;-27
2022/11/19 06:57:20;;;;;;;1.90;1.53;;;;;;;;;;5069851;28;20209;-31
2022/11/19 06:59:47;;;;;;;2.20;1.80;;;;;;;;;;5062976;28;20235;-26
2022/11/19 07:02:14;;;;;;;2.47;1.47;;;;;;;;;;5071384;28;20216;-29
2022/11/19 07:04:41;;;;;;;3.97;2.43;;;;;;;;;;5068391;28;20279;-27
2022/11/19 07:07:09;;;;;;;2.70;2.00;;;;;;;;;;5071511;28;20211;-27
2022/11/19 07:09:37;;;;;;;1.70;1.60;;;;;;;;;;5072221;28;20197;-27
2022/11/19 07:12:04;;;;;;;1.73;1.30;;;;;;;;;;5071855;28;20303;-30
2022/11/19 07:14:32;;;;;;;0.93;0.93;;;;;;;;;;5064523;28;20288;-30
2022/11/19 07:17:03;;;;;;;1.37;1.10;;;;;;;;;;5070351;28;20205;-26
2022/11/19 07:19:31;;;;;;;1.13;1.03;;;;;;;;;;5058833;28;20217;-27
2022/11/19 07:21:58;;;;;;;3.60;1.27;;;;;;;;;;5052433;28;20230;-25
2022/11/19 07:24:25;;;;;;;0.87;0.87;;;;;;;;;;5052282;28;20204;-27
2022/11/19 07:26:52;;;;;;;4.47;1.03;;;;;;;;;;5063092;28;20202;-32
2022/11/19 07:29:27;;;;;;;1.00;1.00;;;;;;;;;;5062293;28;20198;-28
2022/11/19 07:31:55;;;;;;;2.07;1.20;;;;;;;;;;5071920;28;20303;-25
2022/11/19 07:34:23;;;;;;;1.23;1.10;;;;;;;;;;5068527;28;20198;-28
2022/11/19 07:36:50;;;;;;;0.80;0.80;;;;;;;;;;5072986;28;20209;-26
2022/11/19 07:39:17;;;;;;;1.13;1.07;;;;;;;;;;5061176;28;20217;-25
2022/11/19 07:44:29;;;;;;;1.40;1.00;;;;;;;;;;5068421;28;20224;-28
2022/11/19 07:46:57;;;;;;;1.97;1.20;;;;;;;;;;5068005;28;20216;-24
2022/11/19 07:49:24;;;;;;;1.40;0.87;;;;;;;;;;5071878;28;20215;-26
2022/11/19 07:51:52;;;;;;;3.60;1.40;;;;;;;;;;5069618;28;20229;-30
2022/11/19 07:54:19;;;;;;;1.23;1.10;;;;;;;;;;5060486;28;20227;-30
2022/11/19 07:56:46;;;;;;;1.67;1.30;;;;;;;;;;5060406;28;20215;-26
2022/11/19 07:59:13;;;;;;;1.90;1.20;;;;;;;;;;5060952;28;20225;-29
2022/11/19 08:01:40;;;;;;;1.10;1.00;;;;;;;;;;5066065;28;20228;-32
2022/11/19 08:04:09;;;;;;;2.80;1.20;;;;;;;;;;5279710;22;20238;-30
2022/11/19 08:06:36;;;;;;;1.90;1.23;;;;;;;;;;5023475;28;20210;-27
2022/11/19 08:09:04;;;;;;;1.30;1.23;;;;;;;;;;5027025;28;20211;-27
2022/11/19 08:11:31;;;;;;;1.37;1.13;;;;;;;;;;5003302;28;20310;-29
2022/11/19 08:13:59;;;;;;;1.73;1.10;;;;;;;;;;4991919;28;20209;-32
2022/11/19 08:19:14;;;;;;;1.90;1.40;;;;;;;;;;5009628;28;20229;-30
2022/11/19 08:21:42;;;;;;;2.50;1.53;;;;;;;;;;5010568;28;20622;-28
2022/11/19 08:24:09;;;;;;;4.10;1.70;;;;;;;;;;4992591;28;20209;-32
2022/11/19 08:26:37;;;;;;;3.83;1.73;;;;;;;;;;5002174;28;20217;-30
2022/11/19 08:29:04;;;;;;;2.30;1.60;;;;;;;;;;4991173;28;20326;-28
2022/11/19 08:31:31;;;;;;;1.63;1.30;;;;;;;;;;5005729;28;20314;-30
2022/11/19 08:33:58;;;;;;;1.63;1.33;;;;;;;;;;4999498;28;20214;-30
2022/11/19 08:36:27;;;;;;;1.37;1.27;;;;;;;;;;4991308;28;20567;-30
2022/11/19 08:38:57;;;;;;;1.30;1.20;;;;;;;;;;4998739;28;20223;-30
2022/11/19 08:44:09;;;;;;;2.90;1.87;;;;;;;;;;4998947;28;20207;-29
2022/11/19 08:46:36;;;;;;;3.87;1.40;;;;;;;;;;4999214;28;20203;-27
2022/11/19 08:49:04;;;;;;;2.03;1.40;;;;;;;;;;5004419;28;20204;-27
2022/11/19 08:51:32;;;;;;;1.40;1.30;;;;;;;;;;4992843;28;20266;-26
2022/11/19 08:53:59;;;;;;;1.57;1.30;;;;;;;;;;4994409;28;20208;-28
2022/11/19 08:56:27;;;;;;;2.67;1.50;;;;;;;;;;5000981;28;20271;-29
2022/11/19 08:58:54;;;;;;;1.73;1.50;;;;;;;;;;5003803;28;20281;-30
2022/11/19 09:01:21;;;;;;;2.10;1.80;;;;;;;;;;5008310;28;20249;-31
2022/11/19 09:03:49;;;;;;;3.27;1.40;;;;;;;;;;5013463;28;20306;-30
2022/11/19 09:06:16;;;;;;;2.13;1.50;;;;;;;;;;5000763;28;20682;-27
2022/11/19 09:08:44;;;;;;;1.93;1.47;;;;;;;;;;5004444;28;20207;-29
2022/11/19 09:11:12;;;;;;;3.10;1.17;;;;;;;;;;5001875;28;20230;-29
2022/11/19 09:13:40;;;;;;;3.07;1.40;;;;;;;;;;5008918;28;20203;-30
2022/11/19 09:16:08;;;;;;;2.50;1.73;;;;;;;;;;5007613;28;20235;-28
2022/11/19 09:18:37;;;;;;;1.60;1.30;;;;;;;;;;4996195;28;20228;-29
2022/11/19 09:21:05;;;;;;;1.53;1.40;;;;;;;;;;4995203;28;20234;-30
2022/11/19 09:23:32;;;;;;;1.43;1.33;;;;;;;;;;5003695;28;20199;-30
2022/11/19 09:26:02;;;;;;;1.13;1.07;;;;;;;;;;4997736;28;20212;-29
2022/11/19 09:28:30;;;;;;;1.43;1.33;;;;;;;;;;4994752;28;20291;-28
2022/11/19 09:30:57;;;;;;;2.07;1.30;;;;;;;;;;5000357;28;20227;-30
2022/11/19 09:33:24;;;;;;;2.10;1.30;;;;;;;;;;5004829;28;20290;-30
2022/11/19 09:35:52;;;;;;;1.63;1.20;;;;;;;;;;4996966;28;20208;-27
2022/11/19 09:38:19;;;;;;;2.03;1.43;;;;;;;;;;5008506;28;20217;-30
2022/11/19 09:40:47;;;;;;;2.37;1.30;;;;;;;;;;5001999;28;20427;-30
2022/11/19 09:43:19;;;;;;;1.93;1.40;;;;;;;;;;5011163;28;20214;-28
2022/11/19 09:45:51;;;;;;;2.60;1.20;;;;;;;;;;4999540;28;20573;-28
2022/11/19 09:48:25;;;;;;;1.50;1.40;;;;;;;;;;5001612;28;20662;-29
2022/11/19 09:50:54;;;;;;;1.10;1.10;;;;;;;;;;4993977;28;20235;-28
2022/11/19 09:53:22;;;;;;;1.70;1.10;;;;;;;;;;4992283;28;20200;-28
2022/11/19 09:55:51;;;;;;;2.07;1.87;;;;;;;;;;5001471;28;20234;-31
2022/11/19 09:58:23;;;;;;;2.00;1.40;;;;;;;;;;5002818;28;20266;-30
2022/11/19 10:00:50;;;;;;;2.03;1.80;;;;;;;;;;5006736;28;20310;-26
2022/11/19 10:03:18;;;;;;;4.50;2.23;;;;;;;;;;5001518;28;20684;-30
2022/11/19 10:05:51;;;;;;;4.23;1.40;;;;;;;;;;4993232;28;20697;-29
2022/11/19 10:08:26;;;;;;;1.57;1.40;;;;;;;;;;4991867;28;20677;-29
2022/11/19 10:10:57;;;;;;;2.83;1.43;;;;;;;;;;5008919;28;20750;-29
2022/11/19 10:13:33;;;;;;;1.87;1.40;;;;;;;;;;5006769;28;20219;-31
2022/11/19 10:16:06;;;;;;;2.00;1.50;;;;;;;;;;5010538;28;20691;-28
2022/11/19 10:18:40;;;;;;;1.20;1.13;;;;;;;;;;5004365;28;20619;-29
2022/11/19 10:21:09;;;;;;;2.63;1.50;;;;;;;;;;5012466;28;20230;-32
2022/11/19 10:23:45;;;;;;;4.07;1.43;;;;;;;;;;5009568;28;20695;-28
2022/11/19 10:26:15;;;;;;;3.27;1.43;;;;;;;;;;5005237;28;20199;-28
2022/11/19 10:28:47;;;;;;;1.73;1.23;;;;;;;;;;4999679;28;20485;-29
2022/11/19 10:31:16;;;;;;;2.27;1.30;;;;;;;;;;5001234;28;20231;-30
2022/11/19 10:33:46;;;;;;;1.07;0.93;;;;;;;;;;4996436;28;20212;-30
2022/11/19 10:36:18;;;;;;;1.90;1.23;;;;;;;;;;5002651;28;20208;-28
2022/11/19 10:38:52;;;;;;;1.23;1.10;;;;;;;;;;4991779;28;20214;-29
2022/11/19 10:41:21;;;;;;;1.90;1.57;;;;;;;;;;4992006;28;20224;-26
2022/11/19 10:43:52;;;;;;;3.07;1.73;;;;;;;;;;4990532;28;20512;-29
2022/11/19 10:46:22;;;;;;;3.10;1.20;;;;;;;;;;5010348;28;20730;-29
2022/11/19 10:48:51;;;;;;;1.13;1.07;;;;;;;;;;4995782;28;20207;-29
2022/11/19 10:51:22;;;;;;;2.20;1.20;;;;;;;;;;4992160;28;20224;-31
2022/11/19 10:53:49;;;;;;;1.10;1.00;;;;;;;;;;4993390;28;20212;-30
2022/11/19 10:56:19;;;;;;;1.17;0.93;;;;;;;;;;4997945;28;20218;-29
2022/11/19 10:58:47;;;;;;;1.20;1.00;;;;;;;;;;5003456;28;20210;-29
2022/11/19 11:01:17;;;;;;;1.27;1.17;;;;;;;;;;4994656;28;20322;-30
2022/11/19 11:03:48;;;;;;;1.10;1.00;;;;;;;;;;4999982;28;20226;-27
2022/11/19 11:06:16;;;;;;;1.93;0.83;;;;;;;;;;4992345;28;20687;-30
2022/11/19 11:08:48;;;;;;;1.30;1.20;;;;;;;;;;4992720;28;20208;-30
2022/11/19 11:11:20;;;;;;;3.03;1.00;;;;;;;;;;5001547;28;20227;-28
2022/11/19 11:16:43;;;;;;;4.87;1.03;;;;;;;;;;4999278;28;20388;-27
2022/11/19 11:19:13;;;;;;;0.87;0.70;;;;;;;;;;4999498;28;20224;-28
2022/11/19 11:21:42;;;;;;;1.20;1.13;;;;;;;;;;4991788;28;20227;-29
2022/11/19 11:24:11;;;;;;;2.07;0.97;;;;;;;;;;5000241;28;20211;-27
2022/11/19 11:26:38;;;;;;;0.90;0.90;;;;;;;;;;5004785;28;20556;-30
2022/11/19 11:29:07;;;;;;;2.53;0.93;;;;;;;;;;5004947;28;20214;-30
2022/11/19 11:31:39;;;;;;;1.20;1.10;;;;;;;;;;5000370;28;20525;-29
2022/11/19 11:34:14;;;;;;;3.50;1.30;;;;;;;;;;5003700;28;20227;-29
2022/11/19 11:36:41;;;;;;;1.00;1.00;;;;;;;;;;5011017;28;20207;-30
2022/11/19 11:39:23;;;;;;;1.17;1.07;;;;;;;;;;4999277;28;20208;-29
2022/11/19 11:41:50;;;;;;;1.20;1.10;;;;;;;;;;5000865;28;20247;-28
2022/11/19 11:44:19;;;;;;;1.80;0.97;;;;;;;;;;5001344;28;20231;-27
2022/11/19 11:46:49;;;;;;;2.10;1.20;;;;;;;;;;5001354;28;20239;-29
2022/11/19 11:49:34;;;;;;;1.23;1.13;;;;;;;;;;5000676;28;20290;-28
2022/11/19 11:52:17;;;;;;;0.90;0.90;;;;;;;;;;4995311;28;20230;-29
2022/11/19 11:54:54;;;;;;;1.40;1.13;;;;;;;;;;5001343;28;20211;-30
2022/11/19 11:57:23;;;;;;;1.27;1.00;;;;;;;;;;5011331;28;20195;-27
2022/11/19 11:59:50;;;;;;;2.97;1.20;;;;;;;;;;5000860;28;20231;-29
2022/11/19 12:02:22;;;;;;;1.00;1.00;;;;;;;;;;4997713;28;20535;-29
2022/11/19 12:04:49;;;;;;;2.07;1.00;;;;;;;;;;5004419;28;20219;-28
2022/11/19 12:07:20;;;;;;;1.10;1.00;;;;;;;;;;5000246;28;20543;-27
2022/11/19 12:09:52;;;;;;;2.73;1.10;;;;;;;;;;4994585;28;20769;-28
2022/11/19 12:12:26;;;;;;;4.23;1.07;;;;;;;;;;4997487;28;20551;-29
2022/11/19 12:14:56;;;;;;;1.50;0.97;;;;;;;;;;4996905;28;20208;-29
2022/11/19 12:17:34;;;;;;;0.80;0.80;;;;;;;;;;5006177;28;20199;-27
2022/11/19 12:20:22;;;;;;;1.10;1.10;;;;;;;;;;4998986;28;20310;-27
2022/11/19 12:22:58;;;;;;;2.47;0.80;;;;;;;;;;4995687;28;20218;-28
2022/11/19 12:25:30;;;;;;;1.20;0.77;;;;;;;;;;4995858;28;20215;-29
2022/11/19 12:28:05;;;;;;;4.30;1.10;;;;;;;;;;5001762;28;20211;-29
2022/11/19 12:30:38;;;;;;;1.50;1.30;;;;;;;;;;4997917;28;20215;-30
2022/11/19 12:33:19;;;;;;;1.07;0.90;;;;;;;;;;5004149;28;20302;-30
2022/11/19 12:35:51;;;;;;;0.97;0.97;;;;;;;;;;4999958;28;20207;-32
2022/11/19 12:38:30;;;;;;;1.37;0.93;;;;;;;;;;5000383;28;20306;-28
2022/11/19 12:41:03;;;;;;;2.57;1.10;;;;;;;;;;5010503;28;20227;-31
2022/11/19 12:43:40;;;;;;;1.90;1.10;;;;;;;;;;4993314;28;20215;-29
2022/11/19 12:46:12;;;;;;;5.13;1.30;;;;;;;;;;5006700;28;20218;-28
2022/11/19 12:48:53;;;;;;;2.13;1.33;;;;;;;;;;5000401;28;20214;-28
2022/11/19 12:51:28;;;;;;;2.20;1.53;;;;;;;;;;5015115;28;20622;-30
2022/11/19 12:54:07;;;;;;;4.87;2.20;;;;;;;;;;5009483;28;20210;-30
2022/11/19 12:56:42;;;;;;;1.50;1.40;;;;;;;;;;5006182;28;20227;-27
2022/11/19 12:59:17;;;;;;;2.40;1.10;;;;;;;;;;5007992;28;20214;-29
2022/11/19 13:01:46;;;;;;;1.33;1.23;;;;;;;;;;5009085;28;20607;-27
2022/11/19 13:04:15;;;;;;;1.30;1.20;;;;;;;;;;5013717;28;20217;-30
2022/11/19 13:06:45;;;;;;;1.20;1.07;;;;;;;;;;5011061;28;20229;-28
2022/11/19 13:09:17;;;;;;;1.87;1.53;;;;;;;;;;4998812;28;20204;-28
2022/11/19 13:11:46;;;;;;;1.97;1.70;;;;;;;;;;5014077;28;20233;-30
2022/11/19 13:14:17;;;;;;;2.10;1.50;;;;;;;;;;5005851;28;20211;-31
2022/11/19 13:16:45;;;;;;;4.80;2.07;;;;;;;;;;5008457;28;20215;-29
2022/11/19 13:19:19;;;;;;;3.50;2.30;;;;;;;;;;5013763;28;20203;-28
2022/11/19 13:21:48;;;;;;;3.37;1.80;;;;;;;;;;5014317;28;20230;-28
2022/11/19 13:24:23;;;;;;;2.10;1.20;;;;;;;;;;5009791;28;20222;-29
2022/11/19 13:26:51;;;;;;;1.83;1.17;;;;;;;;;;4998145;28;20627;-29
2022/11/19 13:29:27;;;;;;;2.27;1.20;;;;;;;;;;4995481;28;20246;-30
2022/11/19 13:31:56;;;;;;;1.30;1.20;;;;;;;;;;5006296;28;20229;-30
2022/11/19 13:34:28;;;;;;;1.57;1.27;;;;;;;;;;5015406;28;20827;-30
2022/11/19 13:37:01;;;;;;;1.47;1.37;;;;;;;;;;5016666;28;20233;-30
2022/11/19 13:39:33;;;;;;;2.27;1.47;;;;;;;;;;5009815;28;20214;-28
2022/11/19 13:44:46;;;;;;;1.57;1.40;;;;;;;;;;5001600;28;20250;-29
2022/11/19 13:47:16;;;;;;;1.83;1.10;;;;;;;;;;4998821;28;20232;-29
2022/11/19 13:49:44;;;;;;;1.50;1.30;;;;;;;;;;4999640;28;20204;-28
2022/11/19 13:52:17;;;;;;;4.07;2.00;;;;;;;;;;4995781;28;20232;-30
2022/11/19 13:54:46;;;;;;;3.53;2.17;;;;;;;;;;4998688;28;20215;-27
2022/11/19 13:57:25;;;;;;;1.60;1.50;;;;;;;;;;5011992;28;20222;-28
2022/11/19 14:00:00;;;;;;;2.80;2.00;;;;;;;;;;5005413;28;20259;-31
2022/11/19 14:02:38;;;;;;;3.27;1.73;;;;;;;;;;4995764;28;20221;-29
2022/11/19 14:05:23;;;;;;;2.73;2.10;;;;;;;;;;5398465;23;20222;-26
2022/11/19 14:07:56;;;;;;;1.97;1.77;;;;;;;;;;5010576;28;20211;-29
2022/11/19 14:10:26;;;;;;;2.20;1.73;;;;;;;;;;5031399;28;20222;-29
2022/11/19 14:13:04;;;;;;;4.63;1.70;;;;;;;;;;5022283;28;20198;-26
2022/11/19 14:27:21;;;;;;;4.43;2.77;;;;;;;;;;5019269;28;20200;-24
2022/11/19 14:29:53;;;;;;;2.50;2.30;;;;;;;;;;5023864;28;20245;-24
2022/11/19 14:32:29;;;;;;;2.93;2.40;;;;;;;;;;5015466;28;20200;-27
2022/11/19 14:35:12;;;;;;;4.43;1.77;;;;;;;;;;5011589;28;20210;-28
2022/11/19 14:37:40;;;;;;;3.07;1.87;;;;;;;;;;5010794;28;20217;-28
2022/11/19 14:40:09;;;;;;;4.10;1.80;;;;;;;;;;5020457;28;20226;-27
2022/11/19 14:45:39;;;;;;;11.43;8.07;;;;;;;;;;5013099;28;20283;-27
2022/11/19 14:48:06;;;;;;;2.90;2.30;;;;;;;;;;5027122;28;20207;-27
2022/11/19 14:50:34;;;;;;;2.90;2.40;;;;;;;;;;5026668;28;20220;-29
2022/11/19 14:53:02;;;;;;;3.30;2.17;;;;;;;;;;5029622;28;20297;-25
2022/11/19 14:55:29;;;;;;;5.50;1.40;;;;;;;;;;5019383;28;20202;-28
2022/11/19 14:58:00;;;;;;;4.67;1.50;;;;;;;;;;5018177;28;20215;-28
2022/11/19 15:00:29;;;;;;;3.37;1.90;;;;;;;;;;5021900;28;20309;-31
2022/11/19 15:02:57;;;;;;;4.17;2.00;;;;;;;;;;5031177;28;20203;-32
2022/11/19 15:05:28;;;;;;;2.40;2.20;;;;;;;;;;5030409;28;20211;-29
2022/11/19 15:08:10;;;;;;;3.47;2.50;;;;;;;;;;5021332;28;20207;-30
2022/11/19 15:10:48;;;;;;;4.43;2.40;;;;;;;;;;5011824;28;20322;-27
2022/11/19 15:13:20;;;;;;;2.80;1.97;;;;;;;;;;5016521;28;20211;-25
2022/11/19 15:15:49;;;;;;;4.63;2.40;;;;;;;;;;5012912;28;20217;-32
2022/11/19 15:18:37;;;;;;;5.87;3.73;;;;;;;;;;5020265;28;20203;-30
2022/11/19 15:21:10;;;;;;;10.80;5.07;;;;;;;;;;5012989;28;20234;-28
2022/11/19 15:23:42;;;;;;;7.90;5.20;;;;;;;;;;5012612;28;20239;-30
2022/11/19 15:26:15;;;;;;;4.00;2.83;;;;;;;;;;5017731;28;20222;-29
2022/11/19 15:28:50;;;;;;;5.83;3.03;;;;;;;;;;5024008;28;20199;-30
2022/11/19 15:31:24;;;;;;;5.30;3.23;;;;;;;;;;5020251;28;20232;-30
2022/11/19 15:34:09;;;;;;;6.37;2.50;;;;;;;;;;5018737;28;20248;-27
2022/11/19 15:36:39;;;;;;;3.57;2.60;;;;;;;;;;5012432;28;20203;-29
2022/11/19 15:39:11;;;;;;;3.93;3.33;;;;;;;;;;5013504;28;20289;-29
2022/11/19 15:41:41;;;;;;;6.50;3.10;;;;;;;;;;5014319;28;20230;-27